Time,TemperatureF,DewpointF,PressureIn,WindDirection,WindDirectionDegrees,WindSpeedMPH,WindSpeedGustMPH,Humidity,HourlyPrecipIn,Conditions,Clouds,dailyrainin,SoftwareType,DateUTC
2013-03-27 00:01:00,29.5,25.3,29.99,ENE,67,3.8,-999.0,84,-99.99,,,0.00,Acu-Link.com,2013-03-27 04:01:00,
2013-03-27 00:17:00,29.7,25.4,29.99,ENE,67,3.8,-999.0,84,-99.99,,,0.00,Acu-Link.com,2013-03-27 04:17:00,
2013-03-27 00:32:00,29.7,25.4,29.99,ESE,112,2.2,-999.0,84,-99.99,,,0.00,Acu-Link.com,2013-03-27 04:32:00,
2013-03-27 00:47:00,29.7,25.1,29.99,NNE,22,1.6,-999.0,83,-99.99,,,0.00,Acu-Link.com,2013-03-27 04:47:00,
2013-03-27 01:02:00,29.7,25.1,29.99,North,0,2.7,-999.0,83,-99.99,,,0.00,Acu-Link.com,2013-03-27 05:02:00,
2013-03-27 01:17:00,29.7,25.4,29.99,ESE,112,3.8,-999.0,84,-99.99,,,0.00,Acu-Link.com,2013-03-27 05:17:00,
2013-03-27 01:33:00,29.7,25.1,29.99,SSW,202,1.1,-999.0,83,-99.99,,,0.00,Acu-Link.com,2013-03-27 05:33:00,
2013-03-27 01:48:00,29.3,25.1,29.98,ESE,112,2.7,-999.0,84,-99.99,,,0.00,Acu-Link.com,2013-03-27 05:48:00,
2013-03-27 02:03:00,29.3,24.8,29.99,SW,225,2.7,-999.0,83,-99.99,,,0.00,Acu-Link.com,2013-03-27 06:03:00,
2013-03-27 02:18:00,29.1,24.6,29.98,East,90,6.3,-999.0,83,-99.99,,,0.00,Acu-Link.com,2013-03-27 06:18:00,
2013-03-27 02:34:00,29.3,24.8,29.98,SW,225,2.7,-999.0,83,-99.99,,,0.00,Acu-Link.com,2013-03-27 06:34:00,
2013-03-27 02:49:00,29.3,24.5,29.97,West,270,4.7,-999.0,82,-99.99,,,0.00,Acu-Link.com,2013-03-27 06:49:00,
2013-03-27 03:04:00,29.3,24.2,29.97,WNW,292,4.7,-999.0,81,-99.99,,,0.00,Acu-Link.com,2013-03-27 07:04:00,
2013-03-27 03:19:00,29.5,24.7,29.97,West,270,3.8,-999.0,82,-99.99,,,0.00,Acu-Link.com,2013-03-27 07:19:00,
2013-03-27 03:34:00,29.1,24.0,29.97,NNE,22,5.8,-999.0,81,-99.99,,,0.00,Acu-Link.com,2013-03-27 07:34:00,
2013-03-27 03:50:00,28.8,24.0,29.96,NW,315,2.7,-999.0,82,-99.99,,,0.00,Acu-Link.com,2013-03-27 07:50:00,
2013-03-27 04:05:00,28.8,23.7,29.97,East,90,2.2,-999.0,81,-99.99,,,0.00,Acu-Link.com,2013-03-27 08:05:00,
2013-03-27 04:20:00,28.6,23.2,29.97,NNE,22,3.8,-999.0,80,-99.99,,,0.00,Acu-Link.com,2013-03-27 08:20:00,
2013-03-27 04:35:00,28.4,22.4,29.97,East,90,3.1,-999.0,78,-99.99,,,0.00,Acu-Link.com,2013-03-27 08:35:00,
2013-03-27 04:50:00,28.2,21.6,29.97,South,180,3.8,-999.0,76,-99.99,,,0.00,Acu-Link.com,2013-03-27 08:50:00,
2013-03-27 05:06:00,27.5,21.6,29.97,West,270,3.8,-999.0,78,-99.99,,,0.00,Acu-Link.com,2013-03-27 09:06:00,
2013-03-27 05:21:00,27.7,21.1,29.97,SSW,202,6.7,-999.0,76,-99.99,,,0.00,Acu-Link.com,2013-03-27 09:21:00,
2013-03-27 05:36:00,27.9,21.3,29.98,NW,315,3.8,-999.0,76,-99.99,,,0.00,Acu-Link.com,2013-03-27 09:36:00,
2013-03-27 05:51:00,28.0,21.2,29.98,NE,45,2.7,-999.0,75,-99.99,,,0.00,Acu-Link.com,2013-03-27 09:51:00,
2013-03-27 06:06:00,27.7,21.1,29.98,ESE,112,4.7,-999.0,76,-99.99,,,0.00,Acu-Link.com,2013-03-27 10:06:00,
2013-03-27 06:22:00,27.9,21.0,29.99,NNW,337,1.6,-999.0,75,-99.99,,,0.00,Acu-Link.com,2013-03-27 10:22:00,
2013-03-27 06:37:00,28.2,21.3,30.00,East,90,3.8,-999.0,75,-99.99,,,0.00,Acu-Link.com,2013-03-27 10:37:00,
2013-03-27 06:52:00,28.2,21.6,29.99,NNE,22,2.7,-999.0,76,-99.99,,,0.00,Acu-Link.com,2013-03-27 10:52:00,
2013-03-27 07:07:00,27.9,21.0,29.99,SW,225,1.1,-999.0,75,-99.99,,,0.00,Acu-Link.com,2013-03-27 11:07:00,
2013-03-27 07:23:00,27.7,21.4,30.00,South,180,1.6,-999.0,77,-99.99,,,0.00,Acu-Link.com,2013-03-27 11:23:00,
2013-03-27 07:38:00,27.3,21.4,30.01,ESE,112,1.6,-999.0,78,-99.99,,,0.00,Acu-Link.com,2013-03-27 11:38:00,
2013-03-27 07:53:00,28.0,21.8,30.01,East,90,6.7,-999.0,77,-99.99,,,0.00,Acu-Link.com,2013-03-27 11:53:00,
2013-03-27 08:08:00,28.6,22.0,30.02,SSW,202,2.2,-999.0,76,-99.99,,,0.00,Acu-Link.com,2013-03-27 12:08:00,
2013-03-27 08:23:00,31.6,23.3,30.02,South,180,1.6,-999.0,71,-99.99,,,0.00,Acu-Link.com,2013-03-27 12:23:00,
2013-03-27 08:39:00,34.5,23.6,30.01,ESE,112,5.1,-999.0,64,-99.99,,,0.00,Acu-Link.com,2013-03-27 12:39:00,
2013-03-27 08:54:00,34.7,23.4,30.02,East,90,1.6,-999.0,63,-99.99,,,0.00,Acu-Link.com,2013-03-27 12:54:00,
2013-03-27 09:09:00,36.9,23.5,30.03,SSW,202,5.1,-999.0,58,-99.99,,,0.00,Acu-Link.com,2013-03-27 13:09:00,
2013-03-27 09:24:00,35.1,24.5,30.05,ENE,67,3.8,-999.0,65,-99.99,,,0.00,Acu-Link.com,2013-03-27 13:24:00,
2013-03-27 09:39:00,34.2,22.9,30.05,NNW,337,6.3,-999.0,63,-99.99,,,0.00,Acu-Link.com,2013-03-27 13:39:00,
2013-03-27 09:55:00,36.3,24.6,30.05,ESE,112,3.8,-999.0,62,-99.99,,,0.00,Acu-Link.com,2013-03-27 13:55:00,
2013-03-27 10:10:00,36.5,23.6,30.05,NE,45,5.8,-999.0,59,-99.99,,,0.00,Acu-Link.com,2013-03-27 14:10:00,
2013-03-27 10:25:00,36.7,22.9,30.05,NE,45,4.7,-999.0,57,-99.99,,,0.00,Acu-Link.com,2013-03-27 14:25:00,
2013-03-27 10:40:00,37.6,24.2,30.05,ESE,112,4.7,-999.0,58,-99.99,,,0.00,Acu-Link.com,2013-03-27 14:40:00,
2013-03-27 10:55:00,38.3,24.4,30.04,East,90,5.8,-999.0,57,-99.99,,,0.00,Acu-Link.com,2013-03-27 14:55:00,
2013-03-27 11:11:00,38.7,23.9,30.05,East,90,2.7,-999.0,55,-99.99,,,0.00,Acu-Link.com,2013-03-27 15:11:00,
2013-03-27 11:26:00,39.9,24.2,30.06,ENE,67,7.8,-999.0,53,-99.99,,,0.00,Acu-Link.com,2013-03-27 15:26:00,
2013-03-27 11:41:00,40.1,23.9,30.05,NE,45,4.7,-999.0,52,-99.99,,,0.00,Acu-Link.com,2013-03-27 15:41:00,
2013-03-27 11:56:00,41.2,23.0,30.04,ESE,112,7.4,-999.0,48,-99.99,,,0.00,Acu-Link.com,2013-03-27 15:56:00,
2013-03-27 12:11:00,42.3,22.5,30.04,ESE,112,4.7,-999.0,45,-99.99,,,0.00,Acu-Link.com,2013-03-27 16:11:00,
2013-03-27 12:27:00,43.0,22.0,30.04,NE,45,5.1,-999.0,43,-99.99,,,0.00,Acu-Link.com,2013-03-27 16:27:00,
2013-03-27 12:42:00,43.3,19.5,30.04,East,90,4.7,-999.0,38,-99.99,,,0.00,Acu-Link.com,2013-03-27 16:42:00,
2013-03-27 12:57:00,43.7,22.1,30.04,East,90,4.7,-999.0,42,-99.99,,,0.00,Acu-Link.com,2013-03-27 16:57:00,
2013-03-27 13:12:00,43.5,18.4,30.04,NW,315,5.8,-999.0,36,-99.99,,,0.00,Acu-Link.com,2013-03-27 17:12:00,
2013-03-27 13:28:00,44.8,20.7,30.03,ENE,67,4.3,-999.0,38,-99.99,,,0.00,Acu-Link.com,2013-03-27 17:28:00,
2013-03-27 13:43:00,45.7,22.2,30.04,ENE,67,6.3,-999.0,39,-99.99,,,0.00,Acu-Link.com,2013-03-27 17:43:00,
2013-03-27 13:58:00,46.4,20.9,30.03,ESE,112,5.1,-999.0,36,-99.99,,,0.00,Acu-Link.com,2013-03-27 17:58:00,
2013-03-27 14:13:00,46.2,22.6,30.02,NE,45,7.4,-999.0,39,-99.99,,,0.00,Acu-Link.com,2013-03-27 18:13:00,
2013-03-27 14:28:00,48.0,22.4,30.02,SE,135,5.8,-999.0,36,-99.99,,,0.00,Acu-Link.com,2013-03-27 18:28:00,
2013-03-27 14:44:00,46.0,20.6,30.02,East,90,3.1,-999.0,36,-99.99,,,0.00,Acu-Link.com,2013-03-27 18:44:00,
2013-03-27 14:59:00,47.3,21.1,30.01,East,90,6.3,-999.0,35,-99.99,,,0.00,Acu-Link.com,2013-03-27 18:59:00,
2013-03-27 15:14:00,47.8,22.8,30.01,East,90,9.4,-999.0,37,-99.99,,,0.00,Acu-Link.com,2013-03-27 19:14:00,
2013-03-27 15:29:00,46.9,21.4,30.00,South,180,3.1,-999.0,36,-99.99,,,0.00,Acu-Link.com,2013-03-27 19:29:00,
2013-03-27 15:44:00,46.4,21.6,30.00,SSE,157,3.8,-999.0,37,-99.99,,,0.00,Acu-Link.com,2013-03-27 19:44:00,
2013-03-27 16:00:00,46.8,21.2,30.00,SW,225,1.6,-999.0,36,-99.99,,,0.00,Acu-Link.com,2013-03-27 20:00:00,
2013-03-27 16:15:00,46.9,21.4,29.99,South,180,2.7,-999.0,36,-99.99,,,0.00,Acu-Link.com,2013-03-27 20:15:00,
2013-03-27 16:30:00,46.2,20.1,29.99,East,90,4.3,-999.0,35,-99.99,,,0.00,Acu-Link.com,2013-03-27 20:30:00,
2013-03-27 16:45:00,46.0,20.6,29.99,West,270,1.6,-999.0,36,-99.99,,,0.00,Acu-Link.com,2013-03-27 20:45:00,
2013-03-27 17:00:00,46.0,19.9,29.99,ESE,112,4.3,-999.0,35,-99.99,,,0.00,Acu-Link.com,2013-03-27 21:00:00,
2013-03-27 17:16:00,45.7,20.3,29.99,SW,225,2.2,-999.0,36,-99.99,,,0.00,Acu-Link.com,2013-03-27 21:16:00,
2013-03-27 17:46:00,45.9,21.1,29.99,WNW,292,4.3,-999.0,37,-99.99,,,0.00,Acu-Link.com,2013-03-27 21:46:00,
2013-03-27 18:01:00,45.0,19.6,30.00,SSW,202,1.6,-999.0,36,-99.99,,,0.00,Acu-Link.com,2013-03-27 22:01:00,
2013-03-27 18:32:00,42.8,19.0,30.00,SSW,202,1.6,-999.0,38,-99.99,,,0.00,Acu-Link.com,2013-03-27 22:32:00,
2013-03-27 18:47:00,41.9,18.8,30.00,SSE,157,2.7,-999.0,39,-99.99,,,0.00,Acu-Link.com,2013-03-27 22:47:00,
2013-03-27 19:02:00,41.7,19.8,30.00,ESE,112,1.6,-999.0,41,-99.99,,,0.00,Acu-Link.com,2013-03-27 23:02:00,
2013-03-27 19:17:00,41.4,19.5,30.00,SW,225,1.6,-999.0,41,-99.99,,,0.00,Acu-Link.com,2013-03-27 23:17:00,
2013-03-27 19:33:00,40.6,19.4,30.00,ESE,112,0.0,-999.0,42,-99.99,,,0.00,Acu-Link.com,2013-03-27 23:33:00,
2013-03-27 19:48:00,40.3,19.6,30.00,ESE,112,1.6,-999.0,43,-99.99,,,0.00,Acu-Link.com,2013-03-27 23:48:00,
2013-03-27 20:03:00,39.4,21.3,30.01,ESE,112,3.1,-999.0,48,-99.99,,,0.00,Acu-Link.com,2013-03-28 00:03:00,
2013-03-27 20:18:00,38.3,20.8,30.01,NNW,337,0.0,-999.0,49,-99.99,,,0.00,Acu-Link.com,2013-03-28 00:18:00,
2013-03-27 20:33:00,37.2,20.8,30.01,West,270,0.0,-999.0,51,-99.99,,,0.00,Acu-Link.com,2013-03-28 00:33:00,
2013-03-27 20:49:00,36.9,20.4,30.02,West,270,2.7,-999.0,51,-99.99,,,0.00,Acu-Link.com,2013-03-28 00:49:00,
2013-03-27 21:04:00,36.9,20.4,30.02,WSW,247,2.7,-999.0,51,-99.99,,,0.00,Acu-Link.com,2013-03-28 01:04:00,
2013-03-27 21:19:00,37.4,20.9,30.03,WSW,247,1.1,-999.0,51,-99.99,,,0.00,Acu-Link.com,2013-03-28 01:19:00,
2013-03-27 21:34:00,36.9,20.9,30.03,NW,315,1.6,-999.0,52,-99.99,,,0.00,Acu-Link.com,2013-03-28 01:34:00,
2013-03-27 21:49:00,37.4,20.5,30.03,WNW,292,1.6,-999.0,50,-99.99,,,0.00,Acu-Link.com,2013-03-28 01:49:00,
2013-03-27 22:05:00,36.7,22.1,30.03,WSW,247,2.2,-999.0,55,-99.99,,,0.00,Acu-Link.com,2013-03-28 02:05:00,
2013-03-27 22:20:00,36.9,20.9,30.03,SSW,202,4.3,-999.0,52,-99.99,,,0.00,Acu-Link.com,2013-03-28 02:20:00,
2013-03-27 22:35:00,35.8,21.6,30.03,West,270,2.7,-999.0,56,-99.99,,,0.00,Acu-Link.com,2013-03-28 02:35:00,
2013-03-27 22:50:00,35.2,21.6,30.03,South,180,1.6,-999.0,57,-99.99,,,0.00,Acu-Link.com,2013-03-28 02:50:00,
2013-03-27 23:06:00,36.3,21.3,30.03,West,270,2.2,-999.0,54,-99.99,,,0.00,Acu-Link.com,2013-03-28 03:06:00,
2013-03-27 23:36:00,34.5,22.5,30.03,West,270,2.2,-999.0,61,-99.99,,,0.00,Acu-Link.com,2013-03-28 03:36:00,
2013-03-27 23:51:00,34.2,22.1,30.03,NNE,22,0.0,-999.0,61,-99.99,,,0.00,Acu-Link.com,2013-03-28 03:51:00,